createdAt,value
2023-03-26T00:00:31.017Z,20.16
2023-03-26T00:05:33.944Z,20.17
2023-03-26T00:10:39.905Z,20.12
2023-03-26T00:15:42.735Z,20.15
2023-03-26T00:20:45.649Z,20.16
2023-03-26T00:25:50.932Z,20.12
2023-03-26T00:30:59.135Z,20.12
2023-03-26T00:36:04.335Z,20.12
2023-03-26T00:41:17.883Z,20.09
2023-03-26T00:46:21.124Z,20.12
2023-03-26T00:51:24.048Z,20.10
2023-03-26T00:56:28.232Z,20.12
2023-03-26T01:01:32.423Z,20.11
2023-03-26T01:06:36.580Z,20.09
2023-03-26T01:11:41.166Z,20.12
2023-03-26T01:16:46.278Z,20.11
2023-03-26T01:21:49.147Z,20.07
2023-03-26T01:27:13.300Z,20.06
2023-03-26T01:32:25.437Z,20.07
2023-03-26T01:37:34.317Z,20.07
2023-03-26T01:42:42.854Z,20.04
2023-03-26T01:47:46.477Z,20.06
2023-03-26T01:52:49.417Z,20.05
2023-03-26T01:58:01.112Z,20.05
2023-03-26T02:03:18.125Z,20.00
2023-03-26T02:08:25.225Z,20.05
2023-03-26T02:13:29.382Z,20.02
2023-03-26T02:18:37.109Z,20.01
2023-03-26T02:23:40.695Z,20.03
2023-03-26T02:28:44.954Z,20.04
2023-03-26T02:33:49.496Z,20.03
2023-03-26T02:38:52.584Z,20.01
2023-03-26T02:43:56.741Z,19.98
2023-03-26T02:49:00.132Z,20.00
2023-03-26T02:54:03.378Z,19.96
2023-03-26T02:59:07.566Z,19.99
2023-03-26T03:04:10.463Z,19.98
2023-03-26T03:09:13.577Z,19.97
2023-03-26T03:14:17.725Z,19.96
2023-03-26T03:19:20.613Z,19.96
2023-03-26T03:24:23.540Z,19.95
2023-03-26T03:29:28.246Z,19.93
2023-03-26T03:34:31.103Z,19.93
2023-03-26T03:39:34.049Z,19.93
2023-03-26T03:44:40.695Z,19.91
2023-03-26T03:49:43.567Z,19.91
2023-03-26T03:54:46.519Z,19.90
2023-03-26T03:59:50.726Z,19.89
2023-03-26T04:04:54.379Z,19.89
2023-03-26T04:09:57.731Z,19.86
2023-03-26T04:15:01.905Z,19.88
2023-03-26T04:20:08.844Z,19.89
2023-03-26T04:25:13.193Z,19.86
2023-03-26T04:30:20.535Z,19.85
2023-03-26T04:35:23.778Z,19.87
2023-03-26T04:40:26.717Z,19.84
2023-03-26T04:45:31.322Z,19.85
2023-03-26T04:50:34.360Z,19.84
2023-03-26T04:55:42.113Z,19.81
2023-03-26T05:00:47.468Z,19.79
2023-03-26T05:05:50.544Z,19.81
2023-03-26T05:10:53.824Z,19.80
2023-03-26T05:15:58.365Z,19.79
2023-03-26T05:21:01.386Z,19.80
2023-03-26T05:26:04.304Z,19.81
2023-03-26T05:31:09.108Z,19.82
2023-03-26T05:36:15.346Z,19.80
2023-03-26T05:41:18.503Z,19.79
2023-03-26T05:46:23.338Z,19.77
2023-03-26T05:51:26.327Z,19.76
2023-03-26T05:56:29.185Z,19.77
2023-03-26T06:01:33.387Z,19.75
2023-03-26T06:06:36.269Z,19.74
2023-03-26T06:11:39.129Z,19.75
2023-03-26T06:16:43.264Z,19.74
2023-03-26T06:21:46.173Z,19.75
2023-03-26T06:26:48.993Z,19.71
2023-03-26T06:31:53.160Z,19.74
2023-03-26T06:36:55.981Z,19.73
2023-03-26T06:41:58.805Z,19.71
2023-03-26T06:47:03.026Z,19.73
2023-03-26T06:52:06.067Z,19.70
2023-03-26T06:57:08.967Z,19.69
2023-03-26T07:02:13.307Z,19.73
2023-03-26T07:07:16.215Z,19.71
2023-03-26T07:12:19.126Z,19.73
2023-03-26T07:17:23.274Z,19.76
2023-03-26T07:22:26.968Z,19.76
2023-03-26T07:27:37.661Z,19.72
2023-03-26T07:32:50.465Z,19.70
2023-03-26T07:38:04.394Z,19.77
2023-03-26T07:43:13.198Z,19.73
2023-03-26T07:48:19.848Z,19.70
2023-03-26T07:53:23.730Z,19.70
2023-03-26T07:58:52.290Z,19.71
2023-03-26T08:04:23.921Z,19.70
2023-03-26T08:09:34.943Z,19.71
2023-03-26T08:14:49.591Z,19.73
2023-03-26T08:20:02.241Z,19.73
2023-03-26T08:25:27.594Z,19.75
2023-03-26T08:30:31.042Z,19.78
2023-03-26T08:35:35.487Z,19.82
2023-03-26T08:41:01.695Z,19.87
2023-03-26T08:46:26.080Z,19.87
2023-03-26T08:51:43.366Z,19.92
2023-03-26T08:56:52.773Z,19.92
2023-03-26T09:02:20.633Z,19.94
2023-03-26T09:08:00.838Z,19.93
2023-03-26T09:13:19.166Z,19.88
2023-03-26T09:18:38.442Z,19.89
2023-03-26T09:24:31.399Z,19.87
2023-03-26T09:30:09.509Z,19.89
2023-03-26T09:35:15.734Z,19.83
2023-03-26T09:40:22.631Z,19.84
2023-03-26T09:45:46.793Z,19.86
2023-03-26T09:50:58.023Z,19.83
2023-03-26T09:56:08.395Z,19.83
2023-03-26T10:01:15.939Z,19.93
2023-03-26T10:06:37.111Z,19.90
2023-03-26T10:11:59.635Z,19.89
2023-03-26T10:17:10.544Z,19.94
2023-03-26T10:22:25.615Z,19.90
2023-03-26T10:27:38.742Z,19.84
2023-03-26T10:32:48.280Z,19.88
2023-03-26T10:38:03.538Z,19.87
2023-03-26T10:43:33.552Z,19.92
2023-03-26T10:48:51.834Z,19.92
2023-03-26T10:53:55.966Z,19.97
2023-03-26T10:59:04.392Z,19.95
2023-03-26T11:04:16.346Z,19.95
2023-03-26T11:09:30.032Z,20.06
2023-03-26T11:14:41.147Z,20.03
2023-03-26T11:19:53.134Z,19.96
2023-03-26T11:25:06.848Z,19.98
2023-03-26T11:30:19.937Z,20.05
2023-03-26T11:35:40.279Z,20.06
2023-03-26T11:40:50.684Z,20.03
2023-03-26T11:45:55.077Z,19.99
2023-03-26T11:51:01.787Z,19.94
2023-03-26T11:56:10.987Z,19.98
2023-03-26T12:01:17.204Z,19.99
2023-03-26T12:06:25.604Z,19.96
2023-03-26T12:11:35.246Z,19.95
2023-03-26T12:16:39.889Z,19.90
2023-03-26T12:21:47.557Z,19.88
2023-03-26T12:26:58.040Z,19.85
2023-03-26T12:32:15.183Z,19.88
2023-03-26T12:37:36.537Z,19.84
2023-03-26T12:44:49.495Z,19.80
2023-03-26T12:48:06.808Z,19.83
2023-03-26T12:53:22.679Z,19.91
2023-03-26T12:58:44.878Z,19.93
2023-03-26T13:04:08.310Z,19.96
2023-03-26T13:09:22.775Z,20.00
2023-03-26T13:14:39.317Z,20.03
2023-03-26T13:19:52.583Z,20.04
2023-03-26T13:25:00.983Z,20.06
2023-03-26T13:30:07.825Z,20.09
2023-03-26T13:35:22.282Z,20.06
2023-03-26T13:40:29.854Z,20.05
2023-03-26T13:45:43.852Z,20.02
2023-03-26T13:50:54.908Z,20.00
2023-03-26T13:55:59.281Z,20.08
2023-03-26T14:01:05.667Z,20.13
2023-03-26T14:06:25.816Z,20.08
2023-03-26T14:11:36.437Z,20.08
2023-03-26T14:16:42.313Z,20.05
2023-03-26T14:22:03.683Z,20.02
2023-03-26T14:27:18.484Z,20.04
2023-03-26T14:32:32.205Z,20.05
2023-03-26T14:37:54.882Z,20.12
2023-03-26T14:43:14.979Z,20.14
2023-03-26T14:48:39.123Z,20.38
2023-03-26T14:53:46.489Z,20.51
2023-03-26T14:59:18.666Z,20.71
2023-03-26T15:04:51.962Z,20.43
2023-03-26T15:10:28.481Z,20.35
2023-03-26T15:15:45.434Z,21.45
2023-03-26T15:21:29.968Z,20.45
2023-03-26T15:27:03.725Z,20.25
2023-03-26T15:32:30.234Z,20.10
2023-03-26T15:37:52.635Z,20.05
2023-03-26T15:43:04.572Z,20.02
2023-03-26T15:48:19.242Z,20.01
2023-03-26T15:53:34.928Z,20.02
2023-03-26T15:58:46.693Z,20.03
2023-03-26T16:03:57.023Z,20.04
2023-03-26T16:09:16.998Z,20.07
2023-03-26T16:14:23.959Z,20.07
2023-03-26T16:19:49.465Z,20.04
2023-03-26T16:25:28.281Z,20.12
2023-03-26T16:30:33.720Z,20.26
2023-03-26T16:35:41.617Z,20.08
2023-03-26T16:40:55.738Z,19.93
2023-03-26T16:46:07.476Z,19.89
2023-03-26T16:51:17.143Z,19.88
2023-03-26T16:56:29.194Z,19.85
2023-03-26T17:01:44.414Z,19.82
2023-03-26T17:07:14.019Z,19.80
2023-03-26T17:12:20.298Z,19.74
2023-03-26T17:17:37.324Z,19.73
2023-03-26T17:22:43.514Z,19.72
2023-03-26T17:27:50.021Z,19.72
2023-03-26T17:32:58.602Z,19.73
2023-03-26T17:38:01.794Z,19.73
2023-03-26T17:43:09.887Z,19.73
2023-03-26T17:48:18.245Z,19.70
2023-03-26T17:53:25.352Z,19.72
2023-03-26T17:58:31.289Z,19.69
2023-03-26T18:03:36.973Z,19.71
2023-03-26T18:08:50.532Z,19.69
2023-03-26T18:14:26.989Z,19.68
2023-03-26T18:19:32.036Z,19.68
2023-03-26T18:24:39.536Z,19.67
2023-03-26T18:29:44.898Z,19.67
2023-03-26T18:34:52.411Z,19.67
2023-03-26T18:40:00.745Z,19.66
2023-03-26T18:45:08.400Z,19.65
2023-03-26T18:50:17.563Z,19.66
2023-03-26T18:55:20.433Z,19.63
2023-03-26T19:00:25.414Z,19.64
2023-03-26T19:05:32.093Z,19.63
2023-03-26T19:10:35.108Z,19.62
2023-03-26T19:15:38.006Z,19.62
2023-03-26T19:20:44.580Z,19.61
2023-03-26T19:25:48.901Z,19.60
2023-03-26T19:30:55.450Z,19.61
2023-03-26T19:36:04.789Z,19.59
2023-03-26T19:41:07.624Z,19.60
2023-03-26T19:46:14.240Z,19.56
2023-03-26T19:51:23.929Z,19.58
2023-03-26T19:56:27.314Z,19.59
2023-03-26T20:01:31.778Z,19.56
2023-03-26T20:06:43.318Z,19.56
2023-03-26T20:11:47.076Z,19.55
2023-03-26T20:16:49.927Z,19.55
2023-03-26T20:21:54.624Z,19.54
2023-03-26T20:26:57.489Z,19.54
2023-03-26T20:32:00.775Z,19.53
2023-03-26T20:37:05.075Z,19.52
2023-03-26T20:42:08.355Z,19.51
2023-03-26T20:47:11.437Z,19.52
2023-03-26T20:52:16.085Z,19.51
2023-03-26T20:57:18.911Z,19.51
2023-03-26T21:02:21.935Z,19.52
2023-03-26T21:07:26.192Z,19.51
2023-03-26T21:12:31.382Z,19.51
2023-03-26T21:17:34.813Z,19.50
2023-03-26T21:22:43.495Z,19.51
2023-03-26T21:27:55.468Z,19.49
2023-03-26T21:32:59.580Z,19.49
2023-03-26T21:38:04.913Z,19.49
2023-03-26T21:43:08.448Z,19.49
2023-03-26T21:48:12.044Z,19.46
2023-03-26T21:53:16.866Z,19.46
2023-03-26T21:58:32.690Z,19.47
2023-03-26T22:03:39.174Z,19.48
2023-03-26T22:08:43.834Z,19.46
2023-03-26T22:13:46.877Z,19.46
2023-03-26T22:18:49.736Z,19.45
2023-03-26T22:23:54.050Z,19.45
2023-03-26T22:28:57.211Z,19.44
2023-03-26T22:34:00.112Z,19.44
2023-03-26T22:39:05.570Z,19.43
2023-03-26T22:44:19.709Z,19.42
2023-03-26T22:49:26.090Z,19.44
2023-03-26T22:54:30.315Z,19.41
2023-03-26T22:59:33.251Z,19.42
2023-03-26T23:04:37.572Z,19.40
2023-03-26T23:09:41.848Z,19.41
2023-03-26T23:14:44.638Z,19.44
2023-03-26T23:19:47.555Z,19.47
2023-03-26T23:24:51.732Z,19.48
2023-03-26T23:29:55.359Z,19.50
2023-03-26T23:34:58.207Z,19.47
2023-03-26T23:40:07.312Z,19.48
2023-03-26T23:45:10.912Z,19.50
2023-03-26T23:50:14.521Z,19.49
2023-03-26T23:55:18.985Z,19.49
